Time;durP1;ratioP1;P1;durP2;ratioP2;P2;SDS_P1;SDS_P2;PMS_P1;PMS_P2;Temp;Humidity;BMP_temperature;BMP_pressure;BME280_temperature;BME280_humidity;BME280_pressure;Samples;Min_cycle;Max_cycle;Signal;HPM_P1;HPM_P2
2022/03/10 00:00:15;;;;;;;30.38;18.85;;;0.50;99.90;;;;;;2063968;28;20536;-72
2022/03/10 00:01:15;;;;;;;30.02;18.58;;;0.50;99.90;;;;;;2063548;28;20078;-68
2022/03/10 00:02:16;;;;;;;28.27;18.10;;;0.50;99.90;;;;;;2055643;28;20085;-70
2022/03/10 00:03:18;;;;;;;30.00;18.70;;;0.40;99.90;;;;;;2063927;28;20026;-66
2022/03/10 00:04:19;;;;;;;30.65;18.40;;;0.40;99.90;;;;;;2071855;28;20045;-68
2022/03/10 00:05:20;;;;;;;30.80;19.20;;;0.40;99.90;;;;;;2071919;28;20036;-68
2022/03/10 00:06:20;;;;;;;28.13;17.90;;;0.40;99.90;;;;;;2064420;28;20442;-67
2022/03/10 00:07:21;;;;;;;29.70;17.92;;;0.40;99.90;;;;;;2065013;28;20041;-69
2022/03/10 00:08:21;;;;;;;29.23;18.33;;;0.40;99.90;;;;;;2064838;28;20026;-70
2022/03/10 00:09:22;;;;;;;30.10;18.60;;;0.40;99.90;;;;;;2064319;28;20030;-69
2022/03/10 00:10:22;;;;;;;28.90;18.05;;;0.40;99.90;;;;;;2063783;28;20022;-69
2022/03/10 00:11:23;;;;;;;29.85;18.20;;;0.40;99.90;;;;;;2064277;28;20041;-70
2022/03/10 00:12:24;;;;;;;30.60;17.83;;;0.30;99.90;;;;;;2064370;28;20117;-67
2022/03/10 00:13:27;;;;;;;29.85;18.38;;;0.30;99.90;;;;;;2064275;28;20750;-68
2022/03/10 00:14:28;;;;;;;30.70;18.75;;;0.30;99.90;;;;;;2064322;28;20053;-70
2022/03/10 00:15:29;;;;;;;27.50;17.52;;;0.30;99.90;;;;;;2064408;28;20037;-71
2022/03/10 00:16:29;;;;;;;29.13;18.40;;;0.30;99.90;;;;;;2064078;28;20029;-70
2022/03/10 00:17:30;;;;;;;30.50;18.77;;;0.30;99.90;;;;;;2064240;28;20049;-69
2022/03/10 00:18:31;;;;;;;29.42;18.30;;;0.30;99.90;;;;;;2064071;28;20022;-69
2022/03/10 00:19:31;;;;;;;30.80;19.13;;;0.20;99.90;;;;;;2064164;28;20038;-69
2022/03/10 00:20:32;;;;;;;28.95;18.13;;;0.30;99.90;;;;;;2063814;28;20034;-70
2022/03/10 00:21:32;;;;;;;29.70;18.35;;;0.20;99.90;;;;;;2064231;28;20022;-69
2022/03/10 00:22:46;;;;;;;32.30;18.95;;;0.20;99.90;;;;;;2064223;28;20755;-68
2022/03/10 00:23:47;;;;;;;30.45;18.90;;;0.20;99.90;;;;;;2063340;28;20037;-68
2022/03/10 00:24:47;;;;;;;32.80;18.65;;;0.20;99.90;;;;;;2063804;28;20104;-70
2022/03/10 00:25:48;;;;;;;31.13;19.05;;;0.20;99.90;;;;;;2064071;28;20030;-69
2022/03/10 00:26:48;;;;;;;31.45;18.85;;;0.20;99.90;;;;;;2063934;28;20066;-68
2022/03/10 00:27:50;;;;;;;31.85;19.00;;;0.20;99.90;;;;;;2063834;28;20035;-70
2022/03/10 00:28:52;;;;;;;31.73;19.25;;;0.20;99.90;;;;;;2063037;28;20045;-67
2022/03/10 00:29:52;;;;;;;30.17;18.67;;;0.10;99.90;;;;;;2063150;28;20520;-69
2022/03/10 00:30:53;;;;;;;32.00;18.65;;;0.20;99.90;;;;;;2063328;28;20667;-69
2022/03/10 00:31:53;;;;;;;36.53;19.80;;;0.20;99.90;;;;;;2063686;28;20034;-71
2022/03/10 00:32:54;;;;;;;35.42;19.33;;;0.20;99.90;;;;;;2063916;28;20049;-70
2022/03/10 00:33:54;;;;;;;33.80;19.27;;;0.10;99.90;;;;;;2063587;28;20089;-68
2022/03/10 00:34:55;;;;;;;30.02;18.58;;;0.20;99.90;;;;;;2063709;28;20119;-70
2022/03/10 00:35:55;;;;;;;32.90;18.85;;;0.10;99.90;;;;;;2063833;28;20105;-69
2022/03/10 00:36:56;;;;;;;29.35;18.00;;;0.10;99.90;;;;;;2063618;28;20030;-69
2022/03/10 00:37:58;;;;;;;29.63;18.58;;;0.10;99.90;;;;;;2063592;28;20023;-69
2022/03/10 00:38:58;;;;;;;28.52;17.52;;;0.10;99.90;;;;;;2063647;28;20023;-67
2022/03/10 00:39:59;;;;;;;31.85;18.27;;;0.10;99.90;;;;;;2063371;28;20065;-70
2022/03/10 00:41:00;;;;;;;28.77;17.83;;;0.10;99.90;;;;;;2063757;28;20045;-71
2022/03/10 00:42:00;;;;;;;30.08;18.08;;;0.10;99.90;;;;;;2063715;28;20065;-71
2022/03/10 00:43:01;;;;;;;27.67;17.15;;;0.10;99.90;;;;;;2063891;28;20110;-69
2022/03/10 00:44:02;;;;;;;28.73;17.17;;;0.10;99.90;;;;;;2064821;28;20034;-71
2022/03/10 00:45:03;;;;;;;27.10;17.08;;;0.10;99.90;;;;;;2064224;28;20050;-70
2022/03/10 00:46:04;;;;;;;29.73;17.42;;;0.10;99.90;;;;;;2064227;28;20026;-70
2022/03/10 00:47:05;;;;;;;28.33;17.88;;;0.10;99.90;;;;;;2064200;28;20085;-70
2022/03/10 00:48:06;;;;;;;29.58;17.67;;;0.10;99.90;;;;;;2064278;28;20045;-70
2022/03/10 00:49:06;;;;;;;29.73;17.63;;;0.00;99.90;;;;;;2064167;28;20041;-70
2022/03/10 00:50:08;;;;;;;30.65;17.58;;;0.00;99.90;;;;;;2063652;28;20415;-69
2022/03/10 00:51:09;;;;;;;29.13;17.48;;;0.00;99.90;;;;;;2063961;28;20034;-70
2022/03/10 00:52:09;;;;;;;30.10;17.35;;;0.00;99.90;;;;;;2063819;28;20038;-70
2022/03/10 00:53:11;;;;;;;27.58;17.13;;;0.00;99.90;;;;;;2063779;28;20034;-68
2022/03/10 00:54:12;;;;;;;28.42;17.58;;;0.00;99.90;;;;;;2063786;28;20164;-70
2022/03/10 00:55:15;;;;;;;30.30;18.20;;;0.00;99.90;;;;;;2063480;28;20026;-69
2022/03/10 00:56:16;;;;;;;29.80;17.45;;;0.00;99.90;;;;;;2063368;28;20408;-70
2022/03/10 00:57:17;;;;;;;29.33;16.90;;;0.00;99.90;;;;;;2063319;28;20018;-68
2022/03/10 00:58:17;;;;;;;26.40;16.30;;;0.00;99.90;;;;;;2062601;28;20030;-69
2022/03/10 00:59:18;;;;;;;29.90;17.52;;;0.00;99.90;;;;;;2062855;28;20585;-69
2022/03/10 01:00:19;;;;;;;28.30;16.90;;;0.00;99.90;;;;;;2063055;28;20034;-70
2022/03/10 01:01:20;;;;;;;29.30;17.63;;;0.00;99.90;;;;;;2063365;28;20109;-71
2022/03/10 01:02:20;;;;;;;28.83;17.27;;;0.00;99.90;;;;;;2063365;28;20367;-69
2022/03/10 01:03:21;;;;;;;26.83;17.05;;;0.00;99.90;;;;;;2063448;28;20778;-70
2022/03/10 01:04:21;;;;;;;26.95;16.85;;;0.00;99.90;;;;;;2063569;28;20822;-68
2022/03/10 01:05:22;;;;;;;27.98;17.15;;;0.00;99.90;;;;;;2063461;28;20034;-69
2022/03/10 01:06:23;;;;;;;28.35;16.77;;;0.00;99.90;;;;;;2063475;28;20576;-68
2022/03/10 01:07:23;;;;;;;27.63;17.17;;;0.00;99.90;;;;;;2063370;28;20026;-69
2022/03/10 01:08:24;;;;;;;26.48;16.55;;;-0.10;99.90;;;;;;2063374;28;20097;-67
2022/03/10 01:09:24;;;;;;;29.42;17.85;;;-0.10;99.90;;;;;;2063419;28;20041;-70
2022/03/10 01:10:26;;;;;;;26.90;16.73;;;0.00;99.90;;;;;;2062419;28;20353;-70
2022/03/10 01:11:26;;;;;;;25.63;16.13;;;0.00;99.90;;;;;;2062642;28;20030;-70
2022/03/10 01:12:27;;;;;;;26.77;16.77;;;-0.10;99.90;;;;;;2062843;28;20066;-69
2022/03/10 01:13:28;;;;;;;29.67;17.13;;;-0.10;99.90;;;;;;2062888;28;20030;-69
2022/03/10 01:14:28;;;;;;;28.65;16.60;;;-0.10;99.90;;;;;;2063471;28;20100;-69
2022/03/10 01:15:29;;;;;;;32.15;17.15;;;0.00;99.90;;;;;;2063220;28;20037;-69
2022/03/10 01:16:30;;;;;;;36.38;18.38;;;-0.10;99.90;;;;;;2062751;28;20045;-70
2022/03/10 01:17:30;;;;;;;33.92;18.02;;;-0.10;99.90;;;;;;2062879;28;20023;-69
2022/03/10 01:18:31;;;;;;;31.38;17.65;;;-0.10;99.90;;;;;;2062879;28;20541;-69
2022/03/10 01:19:32;;;;;;;28.85;16.95;;;0.00;99.90;;;;;;2062719;28;20034;-69
2022/03/10 01:20:33;;;;;;;32.35;17.33;;;-0.10;99.90;;;;;;2062929;28;20030;-69
2022/03/10 01:21:33;;;;;;;32.40;17.90;;;-0.10;99.90;;;;;;2070749;28;20037;-69
2022/03/10 01:22:35;;;;;;;33.63;17.13;;;-0.10;99.90;;;;;;2070970;28;20032;-70
2022/03/10 01:23:35;;;;;;;34.58;18.20;;;-0.10;99.90;;;;;;2063289;28;20041;-69
2022/03/10 01:24:36;;;;;;;32.47;17.58;;;-0.10;99.90;;;;;;2070772;28;20473;-70
2022/03/10 01:25:37;;;;;;;30.92;16.85;;;-0.10;99.90;;;;;;2070797;28;20107;-69
2022/03/10 01:26:38;;;;;;;32.40;17.05;;;-0.10;99.90;;;;;;2063273;28;20041;-69
2022/03/10 01:27:39;;;;;;;30.50;16.92;;;-0.10;99.90;;;;;;2062587;28;20026;-69
2022/03/10 01:28:39;;;;;;;31.13;17.05;;;-0.10;99.90;;;;;;2062586;28;20113;-69
2022/03/10 01:29:40;;;;;;;29.20;16.40;;;-0.10;99.90;;;;;;2062569;28;20793;-69
2022/03/10 01:30:42;;;;;;;30.80;16.88;;;-0.20;99.90;;;;;;2062016;28;20037;-70
2022/03/10 01:31:43;;;;;;;28.85;16.90;;;-0.20;99.90;;;;;;2070538;28;20030;-69
2022/03/10 01:32:44;;;;;;;30.83;16.65;;;-0.20;99.90;;;;;;2070676;28;20061;-69
2022/03/10 01:33:45;;;;;;;29.20;16.80;;;-0.20;99.90;;;;;;2063294;28;20610;-69
2022/03/10 01:34:46;;;;;;;33.03;17.63;;;-0.20;99.90;;;;;;2062946;28;20101;-70
2022/03/10 01:35:46;;;;;;;32.55;16.95;;;-0.20;99.90;;;;;;2062913;28;20153;-69
2022/03/10 01:36:47;;;;;;;32.83;17.48;;;-0.20;99.90;;;;;;2063037;28;20689;-70
2022/03/10 01:37:47;;;;;;;30.33;17.42;;;-0.20;99.90;;;;;;2063191;28;20035;-69
2022/03/10 01:38:48;;;;;;;30.40;16.98;;;-0.20;99.90;;;;;;2062413;28;20118;-70
2022/03/10 01:39:48;;;;;;;29.88;16.95;;;-0.20;99.90;;;;;;2062532;28;20026;-70
2022/03/10 01:40:49;;;;;;;30.75;17.27;;;-0.20;99.90;;;;;;2062794;28;20034;-69
2022/03/10 01:41:49;;;;;;;32.13;17.10;;;-0.20;99.90;;;;;;2063116;28;20033;-69
2022/03/10 01:42:50;;;;;;;31.33;17.08;;;-0.20;99.90;;;;;;2063127;28;20034;-69
2022/03/10 01:44:05;;;;;;;32.95;17.85;;;-0.20;99.90;;;;;;2063053;28;20080;-70
2022/03/10 01:45:07;;;;;;;29.90;16.67;;;-0.30;99.90;;;;;;2063083;28;20030;-70
2022/03/10 01:46:08;;;;;;;31.55;17.55;;;-0.30;99.90;;;;;;2063267;28;20054;-68
2022/03/10 01:47:10;;;;;;;31.55;17.55;;;-0.30;99.90;;;;;;2063081;28;20038;-69
2022/03/10 01:48:11;;;;;;;33.67;18.10;;;-0.30;99.90;;;;;;2063270;28;20030;-69
2022/03/10 01:49:11;;;;;;;30.75;17.00;;;-0.30;99.90;;;;;;2063118;28;20708;-70
2022/03/10 01:50:14;;;;;;;34.75;18.08;;;-0.30;99.90;;;;;;2062183;28;20153;-70
2022/03/10 01:51:16;;;;;;;32.25;17.80;;;-0.30;99.90;;;;;;2062523;28;20030;-69
2022/03/10 01:52:19;;;;;;;31.33;17.30;;;-0.30;99.90;;;;;;2062455;28;20019;-69
2022/03/10 01:53:20;;;;;;;31.63;17.42;;;-0.30;99.90;;;;;;2062473;28;20530;-70
2022/03/10 01:54:21;;;;;;;32.92;18.10;;;-0.40;99.90;;;;;;2062352;28;20034;-70
2022/03/10 01:55:22;;;;;;;31.77;17.35;;;-0.40;99.90;;;;;;2062506;28;20030;-69
2022/03/10 01:56:24;;;;;;;28.48;16.77;;;-0.40;99.90;;;;;;2062819;28;20050;-70
2022/03/10 01:57:25;;;;;;;29.13;17.02;;;-0.40;99.90;;;;;;2063154;28;20085;-69
2022/03/10 01:58:26;;;;;;;30.88;16.80;;;-0.40;99.90;;;;;;2063161;28;20466;-70
2022/03/10 01:59:27;;;;;;;29.45;17.23;;;-0.40;99.90;;;;;;2063096;28;20030;-69
2022/03/10 02:00:28;;;;;;;28.73;17.63;;;-0.40;99.90;;;;;;2062801;28;20057;-69
2022/03/10 02:01:31;;;;;;;30.58;17.58;;;-0.40;99.90;;;;;;2063058;28;20108;-72
2022/03/10 02:02:32;;;;;;;29.45;16.90;;;-0.40;99.90;;;;;;2062462;28;20034;-69
2022/03/10 02:03:32;;;;;;;25.15;16.80;;;-0.50;99.90;;;;;;2062567;28;20027;-69
2022/03/10 02:04:35;;;;;;;30.65;17.35;;;-0.50;99.90;;;;;;2063078;28;20587;-69
2022/03/10 02:05:35;;;;;;;31.05;17.77;;;-0.50;99.90;;;;;;2063091;28;20171;-70
2022/03/10 02:06:37;;;;;;;28.90;17.38;;;-0.50;99.90;;;;;;2063089;28;20347;-68
2022/03/10 02:10:29;;;;;;;27.60;17.10;;;-0.50;99.90;;;;;;2049269;28;20042;-69
2022/03/10 02:11:30;;;;;;;30.88;18.10;;;-0.50;99.90;;;;;;2065029;28;20660;-69
2022/03/10 02:12:31;;;;;;;29.38;17.17;;;-0.60;99.90;;;;;;2065301;28;20050;-69
2022/03/10 02:13:32;;;;;;;29.33;17.25;;;-0.60;99.90;;;;;;2065801;28;20023;-69
2022/03/10 02:17:20;;;;;;;34.78;18.80;;;-0.60;99.90;;;;;;2065241;28;20030;-69
2022/03/10 02:18:21;;;;;;;33.53;17.90;;;-0.60;99.90;;;;;;2066120;28;20102;-70
2022/03/10 02:19:21;;;;;;;31.63;18.17;;;-0.50;99.90;;;;;;2065938;28;20034;-70
2022/03/10 02:20:22;;;;;;;33.63;18.55;;;-0.40;99.90;;;;;;2065506;28;20118;-71
2022/03/10 02:21:26;;;;;;;32.80;18.45;;;-0.40;99.90;;;;;;2066042;28;20027;-69
2022/03/10 02:22:27;;;;;;;32.47;17.33;;;-0.40;99.90;;;;;;2066260;28;20031;-69
2022/03/10 02:23:27;;;;;;;33.75;17.45;;;-0.40;99.90;;;;;;2064549;28;20027;-69
2022/03/10 02:24:28;;;;;;;33.47;17.75;;;-0.40;99.90;;;;;;2064340;28;20030;-71
2022/03/10 02:25:28;;;;;;;33.70;17.80;;;-0.40;99.90;;;;;;2063327;28;20097;-69
2022/03/10 02:26:29;;;;;;;37.78;18.80;;;-0.50;99.90;;;;;;2062639;28;20026;-70
2022/03/10 02:27:30;;;;;;;38.50;19.02;;;-0.50;99.90;;;;;;2063126;28;20037;-70
2022/03/10 02:28:32;;;;;;;39.25;19.05;;;-0.50;99.90;;;;;;2063042;28;20046;-69
2022/03/10 02:29:33;;;;;;;38.65;20.20;;;-0.60;99.90;;;;;;2062362;28;20052;-72
2022/03/10 02:30:36;;;;;;;34.28;18.95;;;-0.60;99.90;;;;;;2062069;28;20034;-70
2022/03/10 02:31:40;;;;;;;31.67;18.38;;;-0.60;99.90;;;;;;2063200;28;20045;-70
2022/03/10 02:32:41;;;;;;;29.45;18.30;;;-0.60;99.90;;;;;;2062700;28;20081;-70
2022/03/10 02:33:42;;;;;;;30.63;17.55;;;-0.60;99.90;;;;;;2062834;28;20542;-69
2022/03/10 02:34:43;;;;;;;29.88;17.80;;;-0.70;99.90;;;;;;2063040;28;20038;-69
2022/03/10 02:35:44;;;;;;;28.50;16.58;;;-0.70;99.90;;;;;;2063350;28;20093;-69
2022/03/10 02:36:45;;;;;;;29.13;17.20;;;-0.70;99.90;;;;;;2063566;28;20030;-68
2022/03/10 02:37:46;;;;;;;28.38;17.27;;;-0.70;99.90;;;;;;2062842;28;20092;-69
2022/03/10 02:38:46;;;;;;;28.58;17.05;;;-0.70;99.90;;;;;;2062583;28;20101;-69
2022/03/10 02:39:47;;;;;;;26.90;15.93;;;-0.70;99.90;;;;;;2062991;28;20022;-69
2022/03/10 02:40:48;;;;;;;25.38;16.58;;;-0.70;99.90;;;;;;2062570;28;20037;-69
2022/03/10 02:41:49;;;;;;;27.30;17.13;;;-0.80;99.90;;;;;;2063109;28;20486;-69
2022/03/10 02:42:49;;;;;;;26.83;17.30;;;-0.70;99.90;;;;;;2063118;28;20038;-70
2022/03/10 02:43:50;;;;;;;28.00;17.05;;;-0.80;99.90;;;;;;2062262;28;20568;-68
2022/03/10 02:44:51;;;;;;;27.90;16.85;;;-0.80;99.90;;;;;;2062445;28;20461;-70
2022/03/10 02:45:52;;;;;;;26.95;16.98;;;-0.80;99.90;;;;;;2063358;28;20030;-69
2022/03/10 02:46:53;;;;;;;27.65;16.70;;;-0.80;99.90;;;;;;2063397;28;20046;-69
2022/03/10 02:47:53;;;;;;;27.17;16.90;;;-0.80;99.90;;;;;;2064638;28;20030;-70
2022/03/10 02:48:54;;;;;;;29.23;17.45;;;-0.80;99.90;;;;;;2065016;28;20056;-69
2022/03/10 02:49:55;;;;;;;25.98;16.38;;;-0.80;99.90;;;;;;2064931;28;20038;-69
2022/03/10 02:50:55;;;;;;;27.40;17.27;;;-0.80;99.90;;;;;;2064367;28;20034;-69
2022/03/10 02:51:56;;;;;;;27.23;16.63;;;-0.80;99.90;;;;;;2064941;28;20035;-69
2022/03/10 02:52:56;;;;;;;29.92;17.15;;;-0.80;99.90;;;;;;2064813;28;20077;-69
2022/03/10 02:53:57;;;;;;;27.15;16.48;;;-0.80;99.90;;;;;;2072242;28;20113;-69
2022/03/10 02:54:57;;;;;;;27.88;16.98;;;-0.90;99.90;;;;;;2072181;28;20038;-70
2022/03/10 02:55:58;;;;;;;28.63;17.10;;;-0.90;99.90;;;;;;2064767;28;20022;-70
2022/03/10 02:56:59;;;;;;;30.30;17.35;;;-0.90;99.90;;;;;;2063926;28;20034;-70
2022/03/10 02:57:59;;;;;;;29.20;16.85;;;-0.90;99.90;;;;;;2063877;28;20031;-70
2022/03/10 02:59:00;;;;;;;29.77;16.85;;;-0.90;99.90;;;;;;2064357;28;20041;-70
2022/03/10 03:00:00;;;;;;;29.85;17.08;;;-0.90;99.90;;;;;;2071352;28;20037;-72
2022/03/10 03:01:01;;;;;;;28.60;16.15;;;-0.90;99.90;;;;;;2071651;28;20038;-70
2022/03/10 03:02:02;;;;;;;27.52;16.55;;;-0.90;99.90;;;;;;2064330;28;20033;-70
2022/03/10 03:03:03;;;;;;;28.75;16.60;;;-0.90;99.90;;;;;;2064332;28;20623;-70
2022/03/10 03:04:04;;;;;;;29.08;17.23;;;-0.90;99.90;;;;;;2064334;28;20065;-70
2022/03/10 03:05:06;;;;;;;29.08;16.38;;;-0.90;99.90;;;;;;2064244;28;20065;-70
2022/03/10 03:06:07;;;;;;;33.05;18.27;;;-0.90;99.90;;;;;;2064331;28;20594;-70
2022/03/10 03:07:07;;;;;;;28.88;16.90;;;-0.90;99.90;;;;;;2064454;28;20026;-70
2022/03/10 03:08:08;;;;;;;30.52;17.05;;;-0.90;99.90;;;;;;2064390;28;20030;-69
2022/03/10 03:09:08;;;;;;;34.38;17.70;;;-0.90;99.90;;;;;;2064517;28;20093;-70
2022/03/10 03:10:10;;;;;;;36.25;18.48;;;-0.90;99.90;;;;;;2063891;28;20062;-69
2022/03/10 03:11:11;;;;;;;39.05;17.58;;;-0.90;99.90;;;;;;2064433;28;20054;-69
2022/03/10 03:12:11;;;;;;;40.58;18.38;;;-0.90;99.90;;;;;;2064980;28;20080;-70
2022/03/10 03:13:12;;;;;;;36.70;18.67;;;-0.90;99.90;;;;;;2065097;28;20034;-70
2022/03/10 03:14:13;;;;;;;37.65;17.58;;;-0.90;99.90;;;;;;2064867;28;20035;-70
2022/03/10 03:15:15;;;;;;;32.53;17.42;;;-0.90;99.90;;;;;;2063856;28;20027;-69
2022/03/10 03:16:15;;;;;;;37.83;18.30;;;-0.90;99.90;;;;;;2056042;28;20031;-69
2022/03/10 03:17:16;;;;;;;35.63;17.83;;;-0.90;99.90;;;;;;2055590;28;20045;-69
2022/03/10 03:18:16;;;;;;;31.50;16.75;;;-0.90;99.90;;;;;;2063497;28;20680;-69
2022/03/10 03:19:17;;;;;;;34.50;18.45;;;-0.90;99.90;;;;;;2064286;28;20030;-69
2022/03/10 03:20:17;;;;;;;37.88;17.92;;;-0.90;99.90;;;;;;2063870;28;20022;-70
2022/03/10 03:21:19;;;;;;;33.65;17.83;;;-0.90;99.90;;;;;;2064269;28;20064;-69
2022/03/10 03:22:20;;;;;;;33.30;17.42;;;-0.90;99.90;;;;;;2064276;28;20019;-69
2022/03/10 03:23:23;;;;;;;33.00;17.27;;;-0.90;99.90;;;;;;2064250;28;20036;-69
2022/03/10 03:24:24;;;;;;;32.90;17.77;;;-0.90;99.90;;;;;;2064315;28;20034;-69
2022/03/10 03:25:24;;;;;;;30.90;17.48;;;-1.00;99.90;;;;;;2063365;28;20485;-70
2022/03/10 03:26:25;;;;;;;30.55;17.17;;;-0.90;99.90;;;;;;2055497;28;20791;-69
2022/03/10 03:27:26;;;;;;;33.63;17.65;;;-0.90;99.90;;;;;;2063554;28;20043;-70
2022/03/10 03:28:26;;;;;;;33.28;17.75;;;-1.00;99.90;;;;;;2063498;28;20113;-69
2022/03/10 03:29:27;;;;;;;30.13;16.90;;;-1.00;99.90;;;;;;2063578;28;20026;-70
2022/03/10 03:30:28;;;;;;;30.35;17.30;;;-1.00;99.90;;;;;;2063787;28;20023;-69
2022/03/10 03:31:28;;;;;;;29.23;16.92;;;-1.00;99.90;;;;;;2064177;28;20053;-69
2022/03/10 03:32:29;;;;;;;28.63;16.45;;;-1.00;99.90;;;;;;2064060;28;20402;-70
2022/03/10 03:33:30;;;;;;;29.48;17.33;;;-1.00;99.90;;;;;;2064137;28;20063;-69
2022/03/10 03:34:32;;;;;;;28.95;17.33;;;-1.00;99.90;;;;;;2064182;28;20817;-69
2022/03/10 03:35:33;;;;;;;30.98;17.45;;;-1.00;99.90;;;;;;2064158;28;20076;-71
2022/03/10 03:36:34;;;;;;;28.13;17.40;;;-1.00;99.90;;;;;;2064075;28;20145;-69
2022/03/10 03:37:34;;;;;;;31.13;16.95;;;-1.00;99.90;;;;;;2064198;28;20034;-70
2022/03/10 03:38:36;;;;;;;30.90;17.15;;;-1.00;99.90;;;;;;2063453;28;20038;-69
2022/03/10 03:39:36;;;;;;;34.20;17.65;;;-1.00;99.90;;;;;;2063386;28;20073;-69
2022/03/10 03:40:37;;;;;;;31.77;18.10;;;-1.00;99.90;;;;;;2063621;28;20185;-71
2022/03/10 03:41:38;;;;;;;29.92;16.73;;;-1.00;99.90;;;;;;2064153;28;20101;-69
2022/03/10 03:42:39;;;;;;;31.20;17.13;;;-1.00;99.90;;;;;;2063853;28;20500;-71
2022/03/10 03:43:40;;;;;;;30.25;17.30;;;-1.00;99.90;;;;;;2063419;28;20035;-71
2022/03/10 03:44:40;;;;;;;33.17;18.08;;;-1.00;99.90;;;;;;2063471;28;20616;-70
2022/03/10 03:45:41;;;;;;;29.40;17.27;;;-1.00;99.90;;;;;;2064267;28;20133;-70
2022/03/10 03:46:42;;;;;;;31.38;16.55;;;-1.00;99.90;;;;;;2064106;28;20038;-70
2022/03/10 03:47:42;;;;;;;26.80;16.02;;;-1.00;99.90;;;;;;2064171;28;20045;-69
2022/03/10 03:48:43;;;;;;;29.98;17.17;;;-1.00;99.90;;;;;;2063394;28;20528;-70
2022/03/10 03:49:44;;;;;;;27.65;16.15;;;-1.00;99.90;;;;;;2063750;28;20124;-69
2022/03/10 03:50:44;;;;;;;28.73;15.85;;;-1.00;99.90;;;;;;2063754;28;20069;-69
2022/03/10 03:51:45;;;;;;;27.30;16.10;;;-0.90;99.90;;;;;;2064135;28;20048;-70
2022/03/10 03:52:46;;;;;;;25.95;15.32;;;-1.00;99.90;;;;;;2064178;28;20121;-69
2022/03/10 03:53:47;;;;;;;26.30;15.13;;;-1.00;99.90;;;;;;2063622;28;20034;-70
2022/03/10 03:54:47;;;;;;;27.13;16.20;;;-1.00;99.90;;;;;;2063468;28;20018;-68
2022/03/10 03:55:48;;;;;;;22.02;14.32;;;-1.00;99.90;;;;;;2064236;28;20076;-70
2022/03/10 03:56:49;;;;;;;24.48;15.32;;;-1.00;99.90;;;;;;2063805;28;20423;-71
2022/03/10 03:57:49;;;;;;;26.98;15.45;;;-1.00;99.90;;;;;;2064164;28;20034;-71
2022/03/10 03:58:50;;;;;;;25.38;15.20;;;-1.00;99.90;;;;;;2063916;28;20022;-70
2022/03/10 03:59:50;;;;;;;25.58;15.25;;;-0.90;99.90;;;;;;2064051;28;20132;-70
2022/03/10 04:00:51;;;;;;;25.20;15.15;;;-1.00;99.90;;;;;;2063570;28;20085;-70
2022/03/10 04:01:51;;;;;;;26.27;15.40;;;-1.00;99.90;;;;;;2063950;28;20030;-70
2022/03/10 04:02:53;;;;;;;26.23;15.65;;;-0.90;99.90;;;;;;2064003;28;20023;-70
2022/03/10 04:03:54;;;;;;;26.27;15.68;;;-1.00;99.90;;;;;;2064134;28;20514;-70
2022/03/10 04:04:54;;;;;;;28.33;16.02;;;-1.00;99.90;;;;;;2063494;28;20038;-70
2022/03/10 04:05:55;;;;;;;29.30;16.05;;;-1.00;99.90;;;;;;2047326;29;20165;-70
2022/03/10 04:06:55;;;;;;;24.45;15.25;;;-1.00;99.90;;;;;;2055059;28;20035;-71
2022/03/10 04:07:56;;;;;;;29.75;16.73;;;-1.00;99.90;;;;;;2063969;28;20046;-70
2022/03/10 04:08:57;;;;;;;29.08;16.45;;;-1.00;99.90;;;;;;2063261;28;20112;-71
2022/03/10 04:09:57;;;;;;;31.40;17.45;;;-1.00;99.90;;;;;;2063069;28;20034;-70
2022/03/10 04:10:58;;;;;;;29.27;16.88;;;-1.00;99.90;;;;;;2063760;28;20145;-70
2022/03/10 04:11:58;;;;;;;30.10;17.55;;;-1.10;99.90;;;;;;2063896;28;20398;-70
2022/03/10 04:12:59;;;;;;;31.52;17.17;;;-1.10;99.90;;;;;;2063945;28;20038;-70
2022/03/10 04:14:00;;;;;;;31.63;17.63;;;-1.10;99.90;;;;;;2064066;28;20030;-70
2022/03/10 04:15:01;;;;;;;32.00;18.23;;;-1.10;99.90;;;;;;2063865;28;20113;-71
2022/03/10 04:16:02;;;;;;;37.63;18.40;;;-1.10;99.90;;;;;;2063128;28;20048;-70
2022/03/10 04:17:03;;;;;;;36.65;18.63;;;-1.10;99.90;;;;;;2063191;28;20034;-68
2022/03/10 04:18:03;;;;;;;34.30;17.95;;;-1.10;99.90;;;;;;2063885;28;20124;-69
2022/03/10 04:19:05;;;;;;;33.80;17.83;;;-1.10;99.90;;;;;;2063821;28;20036;-69
2022/03/10 04:20:08;;;;;;;35.75;18.95;;;-1.10;99.90;;;;;;2063456;28;20082;-69
2022/03/10 04:21:09;;;;;;;40.63;20.20;;;-1.10;99.90;;;;;;2063810;28;20033;-69
2022/03/10 04:22:10;;;;;;;45.30;20.75;;;-1.10;99.90;;;;;;2063291;28;20089;-70
2022/03/10 04:23:12;;;;;;;48.47;22.27;;;-1.10;99.90;;;;;;2063240;28;20022;-70
2022/03/10 04:24:12;;;;;;;52.05;21.98;;;-1.20;99.90;;;;;;2063825;28;20091;-69
2022/03/10 04:25:13;;;;;;;46.45;21.75;;;-1.10;99.90;;;;;;2063258;28;20029;-69
2022/03/10 04:26:14;;;;;;;46.15;20.67;;;-1.10;99.90;;;;;;2063334;28;20038;-69
2022/03/10 04:27:14;;;;;;;45.90;20.92;;;-1.20;99.90;;;;;;2064017;28;20026;-69
2022/03/10 04:28:15;;;;;;;45.53;20.58;;;-1.20;99.90;;;;;;2063956;28;20026;-69
2022/03/10 04:29:15;;;;;;;42.80;20.92;;;-1.20;99.90;;;;;;2063821;28;20096;-70
2022/03/10 04:30:18;;;;;;;43.22;19.98;;;-1.20;99.90;;;;;;2063470;28;20037;-69
2022/03/10 04:31:18;;;;;;;40.53;20.02;;;-1.20;99.90;;;;;;2063648;28;20133;-69
2022/03/10 04:32:19;;;;;;;40.13;20.35;;;-1.20;99.90;;;;;;2063514;28;20501;-69
2022/03/10 04:33:20;;;;;;;42.33;20.33;;;-1.20;99.90;;;;;;2062941;28;20065;-68
2022/03/10 04:34:20;;;;;;;36.47;19.83;;;-1.20;99.90;;;;;;2063219;28;20042;-71
2022/03/10 04:35:21;;;;;;;36.10;19.25;;;-1.20;99.90;;;;;;2063811;28;20034;-70
2022/03/10 04:36:22;;;;;;;36.08;19.27;;;-1.30;99.90;;;;;;2063084;28;20034;-70
2022/03/10 04:37:23;;;;;;;33.95;19.00;;;-1.20;99.90;;;;;;2055111;28;20749;-70
2022/03/10 04:38:23;;;;;;;29.83;17.60;;;-1.30;99.90;;;;;;2063254;28;20109;-71
2022/03/10 04:39:24;;;;;;;32.95;18.25;;;-1.30;99.90;;;;;;2063100;28;20706;-71
2022/03/10 04:40:24;;;;;;;30.80;18.15;;;-1.30;99.90;;;;;;2062763;28;20129;-71
2022/03/10 04:41:25;;;;;;;32.90;18.02;;;-1.30;99.90;;;;;;2063711;28;20129;-68
2022/03/10 04:42:27;;;;;;;34.53;18.40;;;-1.30;99.90;;;;;;2063770;28;20042;-71
2022/03/10 04:43:28;;;;;;;31.95;18.45;;;-1.30;99.90;;;;;;2063727;28;20034;-71
2022/03/10 04:44:28;;;;;;;33.72;18.50;;;-1.30;99.90;;;;;;2063719;28;20382;-68
2022/03/10 04:45:29;;;;;;;32.10;17.77;;;-1.30;99.90;;;;;;2063832;28;20398;-69
2022/03/10 04:46:30;;;;;;;30.70;18.08;;;-1.40;99.90;;;;;;2063740;28;20030;-69
2022/03/10 04:47:30;;;;;;;30.38;17.63;;;-1.30;99.90;;;;;;2063772;28;20058;-69
2022/03/10 04:48:31;;;;;;;29.83;17.83;;;-1.30;99.90;;;;;;2063714;28;20026;-69
2022/03/10 04:49:32;;;;;;;31.02;18.50;;;-1.40;99.90;;;;;;2063685;28;20674;-70
2022/03/10 04:50:33;;;;;;;32.35;18.38;;;-1.40;99.90;;;;;;2065005;28;20771;-69
2022/03/10 04:51:34;;;;;;;33.50;18.88;;;-1.40;99.90;;;;;;2067309;28;20050;-70
2022/03/10 04:52:35;;;;;;;28.40;17.05;;;-1.40;99.90;;;;;;2065983;28;20064;-70
2022/03/10 04:53:36;;;;;;;30.38;18.10;;;-1.40;99.90;;;;;;2066155;28;20035;-69
2022/03/10 04:54:36;;;;;;;30.05;18.40;;;-1.40;99.90;;;;;;2074645;28;20036;-69
2022/03/10 04:55:37;;;;;;;29.20;17.75;;;-1.40;99.90;;;;;;2067192;28;20057;-69
2022/03/10 04:56:38;;;;;;;26.58;17.88;;;-1.40;99.90;;;;;;2066383;28;20037;-69
2022/03/10 04:57:39;;;;;;;28.33;17.10;;;-1.40;99.90;;;;;;2065812;28;20068;-69
2022/03/10 04:58:40;;;;;;;29.50;17.77;;;-1.40;99.90;;;;;;2064182;28;20022;-69
2022/03/10 04:59:41;;;;;;;28.30;17.85;;;-1.40;99.90;;;;;;2064141;28;20603;-70
2022/03/10 05:00:41;;;;;;;30.33;18.17;;;-1.40;99.90;;;;;;2063797;28;20041;-69
2022/03/10 05:01:42;;;;;;;28.05;17.45;;;-1.40;99.90;;;;;;2064084;28;20038;-69
2022/03/10 05:02:42;;;;;;;29.67;18.05;;;-1.40;99.90;;;;;;2063792;28;20031;-69
2022/03/10 05:03:43;;;;;;;30.50;17.92;;;-1.40;99.90;;;;;;2063488;28;20477;-69
2022/03/10 05:04:44;;;;;;;29.38;16.98;;;-1.40;99.90;;;;;;2063688;28;20030;-69
2022/03/10 05:05:46;;;;;;;29.00;17.75;;;-1.40;99.90;;;;;;2063560;28;20034;-69
2022/03/10 05:06:47;;;;;;;29.63;17.75;;;-1.40;99.90;;;;;;2063561;28;20030;-69
2022/03/10 05:07:47;;;;;;;28.98;16.90;;;-1.40;99.90;;;;;;2063469;28;20034;-69
2022/03/10 05:08:48;;;;;;;29.15;17.65;;;-1.40;99.90;;;;;;2062786;28;20062;-69
2022/03/10 05:09:49;;;;;;;30.27;17.17;;;-1.40;99.90;;;;;;2062164;28;20430;-69
2022/03/10 05:10:49;;;;;;;26.40;16.95;;;-1.40;99.90;;;;;;2070264;28;20128;-70
2022/03/10 05:11:50;;;;;;;28.48;17.30;;;-1.40;99.90;;;;;;2063483;28;20049;-69
2022/03/10 05:12:57;;;;;;;29.50;17.65;;;-1.40;99.90;;;;;;2062725;28;20037;-69
2022/03/10 05:13:57;;;;;;;30.67;17.85;;;-1.40;99.90;;;;;;2055608;28;20609;-69
2022/03/10 05:14:58;;;;;;;31.50;18.65;;;-1.50;99.90;;;;;;2062805;28;20034;-70